Time;durP1;ratioP1;P1;durP2;ratioP2;P2;SDS_P1;SDS_P2;PMS_P1;PMS_P2;Temp;Humidity;BMP_temperature;BMP_pressure;BME280_temperature;BME280_humidity;BME280_pressure;Samples;Min_cycle;Max_cycle;Signal;HPM_P1;HPM_P2
2022/06/13 00:01:23;;;;;;;2.30;2.10;;;20.20;59.20;;;;;;5094887;28;20433;-77
2022/06/13 00:03:51;;;;;;;4.87;2.30;;;20.30;59.70;;;;;;5095419;28;20713;-76
2022/06/13 00:06:20;;;;;;;4.50;2.80;;;20.30;60.40;;;;;;5097257;28;20523;-76
2022/06/13 00:08:47;;;;;;;6.40;2.43;;;20.30;60.50;;;;;;5095720;28;20527;-76
2022/06/13 00:11:17;;;;;;;4.20;2.03;;;20.20;60.60;;;;;;5095099;28;20452;-76
2022/06/13 00:13:46;;;;;;;3.90;2.00;;;20.10;60.80;;;;;;5094453;28;20477;-78
2022/06/13 00:16:14;;;;;;;3.03;2.37;;;20.00;60.70;;;;;;5094675;28;20506;-77
2022/06/13 00:18:47;;;;;;;2.90;2.33;;;20.00;61.50;;;;;;5091826;28;20468;-76
2022/06/13 00:21:14;;;;;;;2.80;2.37;;;20.00;63.60;;;;;;5093084;28;20454;-77
2022/06/13 00:23:43;;;;;;;4.50;2.70;;;20.00;67.80;;;;;;5094886;28;21002;-77
2022/06/13 00:26:09;;;;;;;2.97;2.67;;;19.80;69.90;;;;;;5095884;28;20487;-77
2022/06/13 00:28:36;;;;;;;3.80;2.80;;;19.70;71.90;;;;;;5093584;28;20456;-77
2022/06/13 00:31:03;;;;;;;3.97;3.37;;;19.60;72.60;;;;;;5095345;28;20471;-76
2022/06/13 00:33:30;;;;;;;3.70;2.27;;;19.60;72.30;;;;;;5089389;28;21003;-77
2022/06/13 00:35:57;;;;;;;4.17;2.67;;;19.50;70.50;;;;;;5076210;28;20818;-77
2022/06/13 00:38:24;;;;;;;4.10;2.40;;;19.50;68.60;;;;;;5076477;28;20462;-77
2022/06/13 00:40:52;;;;;;;4.17;2.50;;;19.50;67.60;;;;;;5075996;28;20430;-77
2022/06/13 00:43:19;;;;;;;3.40;2.90;;;19.60;65.10;;;;;;5073704;28;20465;-77
2022/06/13 00:45:45;;;;;;;2.63;2.30;;;19.60;62.00;;;;;;5073101;28;20828;-77
2022/06/13 00:48:14;;;;;;;4.33;2.50;;;19.60;58.20;;;;;;5073650;28;20445;-77
2022/06/13 00:50:46;;;;;;;2.83;2.20;;;19.70;54.60;;;;;;5073217;28;20452;-76
2022/06/13 00:53:18;;;;;;;3.63;1.70;;;19.70;51.00;;;;;;5072925;28;20448;-76
2022/06/13 00:55:49;;;;;;;3.60;1.80;;;19.80;48.70;;;;;;5073545;28;20492;-76
2022/06/13 00:58:18;;;;;;;2.70;1.90;;;19.80;48.70;;;;;;5073232;28;20805;-76
2022/06/13 01:00:49;;;;;;;3.80;1.93;;;19.80;48.70;;;;;;5073888;28;20463;-76
2022/06/13 01:03:16;;;;;;;4.10;2.37;;;19.80;46.20;;;;;;5086279;28;20432;-76
2022/06/13 01:05:49;;;;;;;3.47;1.73;;;19.80;46.10;;;;;;5084640;28;21066;-76
2022/06/13 01:08:18;;;;;;;3.83;1.77;;;19.80;46.20;;;;;;5074885;28;20457;-77
2022/06/13 01:13:46;;;;;;;2.27;2.10;;;20.00;52.40;;;;;;5096370;28;20439;-76
2022/06/13 01:16:25;;;;;;;1.73;1.63;;;20.10;55.70;;;;;;5091204;28;20457;-76
2022/06/13 01:19:19;;;;;;;3.70;2.43;;;20.10;57.00;;;;;;5074473;28;20446;-75
2022/06/13 01:21:54;;;;;;;3.80;2.40;;;20.10;58.70;;;;;;5090378;28;20472;-76
2022/06/13 01:24:57;;;;;;;3.03;2.67;;;20.10;60.90;;;;;;5084143;28;20556;-76
2022/06/13 01:27:50;;;;;;;4.13;2.73;;;20.00;65.30;;;;;;5069390;28;20966;-76
2022/06/13 01:30:53;;;;;;;2.60;2.40;;;19.80;68.80;;;;;;5069626;28;20428;-77
2022/06/13 01:33:27;;;;;;;3.30;3.00;;;19.80;70.30;;;;;;5075006;28;20452;-77
2022/06/13 01:36:04;;;;;;;4.83;2.10;;;19.70;66.90;;;;;;5073056;28;21014;-77
2022/06/13 01:38:44;;;;;;;3.73;1.60;;;19.60;48.50;;;;;;5073399;28;20470;-77
2022/06/13 01:41:16;;;;;;;8.17;2.30;;;19.70;47.20;;;;;;5067725;28;20488;-77
2022/06/13 01:44:00;;;;;;;5.00;2.20;;;19.80;43.30;;;;;;5072096;28;20494;-75
2022/06/13 01:46:33;;;;;;;4.77;1.77;;;19.90;42.30;;;;;;5075097;28;20414;-76
2022/06/13 01:49:10;;;;;;;2.77;2.17;;;20.00;42.60;;;;;;5072590;28;21016;-76
2022/06/13 01:51:44;;;;;;;4.93;2.40;;;20.00;40.40;;;;;;5072489;28;20475;-76
2022/06/13 01:54:22;;;;;;;6.57;1.97;;;19.90;38.70;;;;;;5072704;28;20474;-76
2022/06/13 01:56:59;;;;;;;5.27;2.20;;;19.90;38.80;;;;;;5071829;28;20729;-77
2022/06/13 01:59:32;;;;;;;4.40;1.97;;;19.90;38.70;;;;;;5072896;28;20531;-76
2022/06/13 02:02:05;;;;;;;2.07;1.77;;;19.90;38.70;;;;;;5075240;28;20563;-76
2022/06/13 02:04:37;;;;;;;4.90;2.13;;;19.90;38.80;;;;;;5076077;28;21062;-76
2022/06/13 02:07:07;;;;;;;6.60;2.60;;;19.90;38.80;;;;;;5076455;28;20451;-75
2022/06/13 02:09:40;;;;;;;4.47;2.00;;;19.90;38.70;;;;;;5075628;28;20469;-76
2022/06/13 02:12:07;;;;;;;10.37;2.50;;;19.80;40.60;;;;;;5076538;28;20425;-76
2022/06/13 02:14:37;;;;;;;6.70;2.20;;;19.60;41.70;;;;;;5078180;28;20490;-76
2022/06/13 02:17:11;;;;;;;5.70;2.60;;;19.50;42.50;;;;;;5077644;28;20555;-76
2022/06/13 02:19:43;;;;;;;4.53;2.50;;;19.40;43.50;;;;;;5078923;28;20440;-76
2022/06/13 02:22:13;;;;;;;4.00;2.17;;;19.20;41.80;;;;;;5078054;28;20813;-76
2022/06/13 02:24:45;;;;;;;9.23;2.53;;;19.20;43.10;;;;;;5077470;28;20936;-76
2022/06/13 02:27:13;;;;;;;2.53;2.33;;;19.10;40.90;;;;;;5077571;28;20446;-77
2022/06/13 02:29:45;;;;;;;3.60;1.73;;;19.00;39.60;;;;;;5077209;28;20437;-76
2022/06/13 02:32:17;;;;;;;4.43;2.00;;;18.90;37.80;;;;;;5076992;28;20819;-77
2022/06/13 02:34:49;;;;;;;3.53;1.87;;;18.90;37.80;;;;;;5076674;28;20450;-76
2022/06/13 02:37:20;;;;;;;11.73;3.23;;;18.80;37.70;;;;;;5075461;28;20484;-77
2022/06/13 02:39:51;;;;;;;6.80;2.10;;;18.80;37.70;;;;;;5077401;28;20421;-76
2022/06/13 02:42:30;;;;;;;3.93;2.20;;;18.70;37.60;;;;;;5077293;28;20455;-76
2022/06/13 02:45:02;;;;;;;3.30;2.50;;;18.60;37.50;;;;;;5075405;28;20434;-76
2022/06/13 02:47:36;;;;;;;4.00;2.00;;;18.50;37.40;;;;;;5076279;28;20515;-76
2022/06/13 02:50:09;;;;;;;4.53;2.13;;;18.40;37.30;;;;;;5075827;28;20460;-76
2022/06/13 02:52:40;;;;;;;8.70;2.40;;;18.40;37.30;;;;;;5075382;28;20456;-76
2022/06/13 02:55:09;;;;;;;3.27;1.93;;;18.30;37.20;;;;;;5083763;28;20468;-76
2022/06/13 02:57:50;;;;;;;10.17;2.97;;;18.30;37.90;;;;;;5085813;28;20497;-76
2022/06/13 03:00:24;;;;;;;3.73;2.00;;;18.20;37.20;;;;;;5075598;28;20467;-76
2022/06/13 03:03:03;;;;;;;6.17;2.07;;;18.00;37.60;;;;;;5074554;28;20475;-75
2022/06/13 03:05:46;;;;;;;4.93;2.10;;;18.00;38.30;;;;;;5072017;28;20502;-76
2022/06/13 03:08:38;;;;;;;6.17;2.10;;;18.00;38.20;;;;;;5075703;28;20448;-76
2022/06/13 03:11:17;;;;;;;4.83;2.10;;;17.90;38.70;;;;;;5074728;28;20451;-75
2022/06/13 03:13:54;;;;;;;4.97;1.93;;;17.80;38.80;;;;;;5074919;28;20444;-76
2022/06/13 03:16:27;;;;;;;5.30;2.37;;;17.80;39.30;;;;;;5075062;28;20498;-76
2022/06/13 03:19:03;;;;;;;5.60;2.20;;;17.90;38.50;;;;;;5074973;28;20480;-76
2022/06/13 03:21:35;;;;;;;4.57;2.00;;;17.90;39.20;;;;;;5075731;28;20452;-75
2022/06/13 03:24:11;;;;;;;4.27;2.43;;;17.80;39.10;;;;;;5083255;28;20475;-76
2022/06/13 03:26:43;;;;;;;5.53;2.43;;;17.80;39.70;;;;;;5088225;28;20534;-76
2022/06/13 03:29:25;;;;;;;4.83;2.40;;;17.70;40.30;;;;;;5095118;22;20543;-83
2022/06/13 03:32:01;;;;;;;7.27;2.37;;;17.70;39.90;;;;;;5078033;28;20468;-83
2022/06/13 03:34:34;;;;;;;5.43;2.27;;;17.70;40.10;;;;;;5069836;28;20420;-83
2022/06/13 03:37:05;;;;;;;4.70;2.10;;;17.70;40.50;;;;;;5057759;28;20441;-81
2022/06/13 03:39:38;;;;;;;5.33;2.57;;;17.60;40.80;;;;;;5058051;28;20474;-81
2022/06/13 03:42:11;;;;;;;3.23;1.97;;;17.50;41.50;;;;;;5058015;28;20480;-82
2022/06/13 03:44:44;;;;;;;5.23;2.30;;;17.40;41.70;;;;;;5057983;28;20405;-80
2022/06/13 03:47:15;;;;;;;10.07;2.90;;;17.30;41.90;;;;;;5069618;28;20449;-83
2022/06/13 03:49:49;;;;;;;2.50;1.80;;;17.30;41.70;;;;;;5051034;28;20492;-82
2022/06/13 03:52:18;;;;;;;4.40;2.50;;;17.20;42.80;;;;;;5066494;28;20479;-82
2022/06/13 03:54:49;;;;;;;7.87;2.63;;;17.20;42.30;;;;;;5065492;28;20460;-82
2022/06/13 03:57:23;;;;;;;7.60;2.83;;;17.10;42.40;;;;;;5059997;28;20578;-81
2022/06/13 03:59:56;;;;;;;6.30;2.33;;;17.20;42.60;;;;;;5059588;28;20883;-82
2022/06/13 04:02:29;;;;;;;3.40;2.60;;;17.20;42.70;;;;;;5051661;28;20861;-81
2022/06/13 04:04:58;;;;;;;5.37;2.30;;;17.20;43.10;;;;;;5038368;28;20401;-81
2022/06/13 04:07:29;;;;;;;3.87;2.30;;;17.20;42.90;;;;;;5039387;28;20541;-80
2022/06/13 04:10:01;;;;;;;7.27;2.23;;;17.10;42.90;;;;;;5039166;28;20455;-81
2022/06/13 04:12:55;;;;;;;3.73;2.50;;;17.10;43.00;;;;;;5047544;28;20882;-81
2022/06/13 04:15:53;;;;;;;5.40;2.23;;;17.20;43.10;;;;;;5057770;28;20469;-81
2022/06/13 04:18:35;;;;;;;3.03;2.50;;;17.10;43.10;;;;;;5043083;28;20471;-83
2022/06/13 04:21:12;;;;;;;5.37;2.80;;;17.10;43.10;;;;;;5055822;28;20471;-81
2022/06/13 04:23:46;;;;;;;3.53;2.70;;;17.20;43.50;;;;;;5057096;28;20441;-80
2022/06/13 04:26:19;;;;;;;3.20;2.37;;;17.30;43.50;;;;;;5059460;28;20807;-81
2022/06/13 04:28:52;;;;;;;5.03;2.30;;;17.40;43.70;;;;;;5058760;28;20878;-81
2022/06/13 04:31:22;;;;;;;10.90;2.90;;;17.50;43.40;;;;;;5061615;28;20849;-83
2022/06/13 04:33:52;;;;;;;4.47;2.60;;;17.70;42.80;;;;;;5062813;28;20480;-84
2022/06/13 04:36:23;;;;;;;6.43;2.80;;;17.70;42.70;;;;;;5060432;28;20449;-83
2022/06/13 04:38:53;;;;;;;3.40;2.40;;;17.80;42.40;;;;;;5060641;28;20466;-82
2022/06/13 04:41:23;;;;;;;5.87;2.60;;;17.90;42.30;;;;;;5061062;28;20445;-81
2022/06/13 04:43:54;;;;;;;6.50;2.80;;;18.00;42.20;;;;;;5060157;28;20999;-82
2022/06/13 04:46:23;;;;;;;5.87;2.17;;;18.00;42.00;;;;;;5058515;28;20993;-83
2022/06/13 04:48:52;;;;;;;5.53;3.30;;;18.00;42.00;;;;;;5055386;28;20897;-81
2022/06/13 04:51:23;;;;;;;6.20;2.67;;;18.20;41.20;;;;;;5039394;28;20470;-82
2022/06/13 04:53:56;;;;;;;6.07;2.77;;;18.50;40.60;;;;;;5039779;28;20806;-82
2022/06/13 04:56:31;;;;;;;4.47;2.20;;;18.90;38.90;;;;;;5055088;28;20803;-82
2022/06/13 04:59:03;;;;;;;5.00;2.20;;;19.40;38.20;;;;;;5059363;28;20449;-82
2022/06/13 05:01:33;;;;;;;5.17;2.27;;;20.20;37.70;;;;;;5057588;28;20555;-82
2022/06/13 05:04:02;;;;;;;5.20;2.30;;;21.10;34.00;;;;;;5045750;28;20517;-80
2022/06/13 05:06:36;;;;;;;4.60;2.57;;;21.60;32.50;;;;;;5054592;28;20532;-81
2022/06/13 05:09:06;;;;;;;4.47;2.53;;;21.90;31.40;;;;;;5049418;28;20467;-81
2022/06/13 05:11:38;;;;;;;6.60;2.40;;;22.20;30.50;;;;;;5055891;28;20428;-82
2022/06/13 05:14:10;;;;;;;6.43;2.27;;;22.40;30.70;;;;;;5056356;28;20439;-82
2022/06/13 05:16:53;;;;;;;4.53;2.07;;;22.60;30.90;;;;;;5055460;28;20523;-82
2022/06/13 05:19:36;;;;;;;6.87;2.10;;;23.00;29.00;;;;;;5038379;28;20501;-82
2022/06/13 05:22:18;;;;;;;9.87;2.27;;;22.90;28.70;;;;;;5052425;28;20503;-80
2022/06/13 05:25:04;;;;;;;3.20;2.20;;;22.90;29.00;;;;;;5047162;28;20536;-80
2022/06/13 05:27:31;;;;;;;3.07;2.03;;;22.60;29.50;;;;;;5055267;28;20883;-79
2022/06/13 05:29:58;;;;;;;5.53;1.83;;;21.30;31.70;;;;;;5049820;28;21039;-80
2022/06/13 05:32:25;;;;;;;2.10;1.63;;;20.90;32.70;;;;;;5057631;28;20511;-80
2022/06/13 05:34:53;;;;;;;5.00;2.50;;;20.70;32.70;;;;;;5055391;28;20428;-81
2022/06/13 05:37:22;;;;;;;5.90;2.10;;;20.20;33.40;;;;;;5059551;28;20460;-80
2022/06/13 05:39:49;;;;;;;4.10;2.40;;;20.60;33.20;;;;;;5062963;28;20533;-80
2022/06/13 05:42:16;;;;;;;9.30;2.10;;;21.10;31.90;;;;;;5055886;28;20524;-80
2022/06/13 05:44:43;;;;;;;2.77;2.23;;;21.60;31.10;;;;;;5065778;28;20464;-79
2022/06/13 05:47:16;;;;;;;3.93;2.20;;;21.90;30.20;;;;;;5067658;28;20431;-79
2022/06/13 05:49:43;;;;;;;5.10;2.00;;;22.20;30.50;;;;;;5068663;28;20471;-79
2022/06/13 05:52:11;;;;;;;3.50;2.10;;;22.30;29.50;;;;;;5075354;28;20444;-84
2022/06/13 05:54:40;;;;;;;4.43;2.23;;;22.00;29.90;;;;;;5076944;28;20467;-83
2022/06/13 05:57:07;;;;;;;7.57;2.13;;;21.40;29.90;;;;;;5173224;22;21287;-81
2022/06/13 05:59:36;;;;;;;4.60;2.43;;;21.00;31.30;;;;;;5093252;28;20444;-80
2022/06/13 06:02:03;;;;;;;5.43;2.33;;;21.80;30.10;;;;;;5081580;28;20459;-80
2022/06/13 06:04:30;;;;;;;6.23;2.30;;;22.00;29.90;;;;;;5067797;28;20514;-81
2022/06/13 06:06:57;;;;;;;3.73;2.10;;;21.70;30.00;;;;;;5074420;28;20457;-81
2022/06/13 06:09:24;;;;;;;6.07;2.20;;;21.60;30.00;;;;;;5064247;28;20540;-80
2022/06/13 06:11:52;;;;;;;5.83;2.50;;;21.40;29.90;;;;;;5074392;28;20461;-82
2022/06/13 06:14:19;;;;;;;6.03;2.37;;;20.80;31.00;;;;;;5071485;28;20446;-82
2022/06/13 06:16:46;;;;;;;5.03;2.20;;;20.70;31.60;;;;;;5086880;28;20657;-83
2022/06/13 06:19:13;;;;;;;5.57;2.30;;;20.50;32.40;;;;;;5096154;28;20563;-81
2022/06/13 06:21:40;;;;;;;4.73;2.70;;;20.50;32.30;;;;;;5091896;28;20427;-82
2022/06/13 06:24:08;;;;;;;3.73;2.40;;;20.40;32.80;;;;;;5082221;28;20435;-82
2022/06/13 06:26:37;;;;;;;3.73;2.47;;;20.60;31.90;;;;;;5077068;28;20608;-81
2022/06/13 06:29:06;;;;;;;7.20;2.10;;;20.50;32.10;;;;;;5075186;28;20464;-80
2022/06/13 06:31:33;;;;;;;4.67;2.53;;;20.20;33.20;;;;;;5080188;28;20484;-79
2022/06/13 06:34:00;;;;;;;3.50;2.57;;;20.00;33.40;;;;;;5078365;28;20444;-80
2022/06/13 06:36:27;;;;;;;8.53;2.83;;;20.20;33.40;;;;;;5073337;28;20446;-84
2022/06/13 06:38:54;;;;;;;7.37;2.87;;;20.40;32.70;;;;;;5076523;28;20514;-81
2022/06/13 06:41:21;;;;;;;4.77;2.13;;;20.30;33.10;;;;;;5074192;28;20469;-80
2022/06/13 06:43:48;;;;;;;4.30;2.50;;;20.60;31.90;;;;;;5072980;28;20519;-78
2022/06/13 06:46:17;;;;;;;3.90;2.40;;;20.50;32.40;;;;;;5064695;28;20435;-79
2022/06/13 06:48:44;;;;;;;3.60;2.07;;;20.50;32.50;;;;;;5065561;28;20523;-79
2022/06/13 06:51:14;;;;;;;4.00;1.90;;;20.80;30.90;;;;;;5074471;28;20780;-79
2022/06/13 07:01:58;;;;;;;6.47;2.00;;;22.80;28.70;;;;;;5049628;28;20413;-79
2022/06/13 07:04:25;;;;;;;4.80;2.87;;;21.50;30.00;;;;;;5077743;28;20402;-83
2022/06/13 07:06:52;;;;;;;4.10;2.23;;;21.40;30.00;;;;;;5077970;28;20428;-86
2022/06/13 07:09:19;;;;;;;8.73;2.77;;;20.90;30.60;;;;;;5078383;28;20475;-84
2022/06/13 07:11:55;;;;;;;4.10;2.30;;;21.00;30.60;;;;;;5075693;28;20431;-83
2022/06/13 07:14:26;;;;;;;3.83;2.37;;;21.20;29.50;;;;;;5077774;28;20468;-85
2022/06/13 07:16:53;;;;;;;6.57;2.60;;;20.70;29.40;;;;;;5074077;28;20429;-81
2022/06/13 07:19:22;;;;;;;5.33;2.50;;;20.60;29.30;;;;;;5070137;28;20497;-82
2022/06/13 07:21:49;;;;;;;4.43;2.40;;;20.30;29.10;;;;;;5060985;28;21004;-81
2022/06/13 07:24:16;;;;;;;5.83;3.30;;;20.20;29.10;;;;;;5059985;28;20500;-81
2022/06/13 07:26:43;;;;;;;5.03;2.67;;;20.20;29.10;;;;;;5063094;28;20527;-81
2022/06/13 07:29:10;;;;;;;4.77;2.20;;;20.10;29.20;;;;;;5061565;28;20496;-82
2022/06/13 07:31:40;;;;;;;6.67;2.80;;;20.20;29.00;;;;;;5061170;28;20453;-83
2022/06/13 07:34:12;;;;;;;5.73;2.13;;;20.40;29.20;;;;;;5060951;28;20489;-83
2022/06/13 07:36:41;;;;;;;4.10;1.80;;;20.40;29.20;;;;;;5061980;28;20456;-82
2022/06/13 07:39:08;;;;;;;2.87;2.17;;;20.30;29.10;;;;;;5066520;28;20472;-82
2022/06/13 07:41:58;;;;;;;6.73;2.60;;;20.30;29.10;;;;;;5062266;28;20449;-81
2022/06/13 07:44:29;;;;;;;6.20;2.17;;;20.10;29.20;;;;;;5060856;28;20495;-83
2022/06/13 07:46:56;;;;;;;3.60;2.20;;;20.20;30.00;;;;;;5059066;28;20460;-81
2022/06/13 07:49:23;;;;;;;7.17;2.40;;;20.40;29.20;;;;;;5059730;28;20528;-81
2022/06/13 07:51:52;;;;;;;3.27;2.40;;;20.20;30.10;;;;;;5059077;28;20427;-81
2022/06/13 07:54:19;;;;;;;7.97;3.20;;;20.30;29.60;;;;;;5060946;28;20576;-80
2022/06/13 07:56:46;;;;;;;4.80;2.60;;;20.30;29.10;;;;;;5072842;28;20475;-80
2022/06/13 07:59:33;;;;;;;6.73;2.23;;;20.50;29.20;;;;;;5069382;28;20519;-81
2022/06/13 08:02:00;;;;;;;5.90;2.63;;;20.60;29.30;;;;;;5073210;28;20459;-80
2022/06/13 08:07:43;;;;;;;5.23;2.60;;;20.90;29.50;;;;;;5078617;28;20436;-80
2022/06/13 08:10:10;;;;;;;5.43;2.80;;;20.90;29.50;;;;;;5095708;28;20452;-81
2022/06/13 08:12:41;;;;;;;3.90;2.70;;;20.80;29.50;;;;;;5096674;28;20436;-80
2022/06/13 08:15:09;;;;;;;7.63;2.93;;;20.80;29.50;;;;;;5080295;28;20452;-81
2022/06/13 08:17:36;;;;;;;6.20;2.63;;;20.60;29.80;;;;;;5054538;28;20497;-80
2022/06/13 08:20:04;;;;;;;4.83;2.27;;;20.60;29.90;;;;;;5053600;28;20457;-79
2022/06/13 08:22:32;;;;;;;5.47;2.67;;;20.90;30.00;;;;;;5056041;28;20461;-80
2022/06/13 08:25:00;;;;;;;4.27;2.83;;;21.10;29.70;;;;;;5055311;28;20489;-81
2022/06/13 08:27:27;;;;;;;7.50;3.13;;;21.30;29.80;;;;;;5055434;28;20455;-80
2022/06/13 08:29:54;;;;;;;6.53;2.40;;;21.50;30.00;;;;;;5054346;28;20475;-78
2022/06/13 08:32:21;;;;;;;11.53;2.87;;;21.70;30.00;;;;;;5056574;28;20409;-80
2022/06/13 08:34:49;;;;;;;6.50;2.80;;;21.90;29.60;;;;;;5055282;28;20458;-80
2022/06/13 08:37:19;;;;;;;5.70;2.83;;;22.20;28.90;;;;;;5052746;28;20500;-81
2022/06/13 08:39:46;;;;;;;4.50;2.63;;;22.30;28.20;;;;;;5053532;28;20409;-80
2022/06/13 08:42:20;;;;;;;5.93;3.00;;;22.30;28.60;;;;;;5050104;28;20454;-80
2022/06/13 08:44:57;;;;;;;5.10;2.73;;;22.00;28.10;;;;;;5046159;28;20435;-80
2022/06/13 08:47:37;;;;;;;6.00;3.10;;;21.90;28.00;;;;;;5057504;28;20472;-82
2022/06/13 08:50:13;;;;;;;4.43;2.90;;;22.00;28.20;;;;;;5064328;28;20451;-80
2022/06/13 08:52:49;;;;;;;5.43;3.17;;;22.30;27.70;;;;;;5068872;28;20951;-81
2022/06/13 08:55:25;;;;;;;7.17;2.80;;;22.60;27.30;;;;;;5067678;28;20433;-84
2022/06/13 08:58:04;;;;;;;5.70;2.53;;;22.70;27.10;;;;;;5066687;28;20479;-83
2022/06/13 09:00:34;;;;;;;5.00;2.77;;;22.90;26.90;;;;;;5048900;28;20449;-82
2022/06/13 09:03:06;;;;;;;5.87;2.70;;;22.90;26.90;;;;;;5049815;28;20469;-83
2022/06/13 09:05:39;;;;;;;3.70;2.40;;;23.00;26.50;;;;;;5053834;28;20453;-83
2022/06/13 09:08:13;;;;;;;4.90;2.73;;;22.80;26.00;;;;;;5054098;28;20515;-82
2022/06/13 09:10:48;;;;;;;7.73;3.00;;;22.30;26.80;;;;;;5051868;28;20505;-81
2022/06/13 09:13:23;;;;;;;4.63;2.80;;;22.30;27.10;;;;;;5052057;28;20428;-81
2022/06/13 09:15:54;;;;;;;6.40;2.47;;;22.50;26.00;;;;;;5051198;28;20499;-81
2022/06/13 09:18:28;;;;;;;7.07;2.30;;;22.70;25.30;;;;;;5051708;28;20492;-83
2022/06/13 09:20:59;;;;;;;4.57;2.50;;;23.10;25.40;;;;;;5053025;28;20456;-80
2022/06/13 09:23:38;;;;;;;2.63;2.40;;;23.50;25.20;;;;;;5053301;28;20393;-82
2022/06/13 09:26:14;;;;;;;10.80;2.97;;;23.70;25.80;;;;;;5051556;28;20988;-81
2022/06/13 09:28:49;;;;;;;4.13;2.50;;;23.60;26.10;;;;;;5046031;28;20804;-82
2022/06/13 09:31:24;;;;;;;8.73;2.77;;;23.50;27.00;;;;;;5045912;28;20516;-83
2022/06/13 09:33:53;;;;;;;4.70;2.60;;;23.20;26.50;;;;;;5045540;28;20817;-83
2022/06/13 09:36:26;;;;;;;4.80;2.40;;;23.20;26.00;;;;;;5045010;28;20428;-82
2022/06/13 09:39:00;;;;;;;5.00;2.30;;;23.50;25.00;;;;;;5045901;28;20464;-82
2022/06/13 09:41:54;;;;;;;5.87;2.40;;;23.70;25.60;;;;;;5051417;28;20432;-82
2022/06/13 09:44:33;;;;;;;2.60;2.00;;;24.00;23.90;;;;;;5048324;28;20473;-86
2022/06/13 09:47:10;;;;;;;2.50;2.10;;;24.40;23.70;;;;;;5050922;28;20445;-82
2022/06/13 09:49:46;;;;;;;8.87;2.30;;;24.60;23.10;;;;;;5053044;28;20497;-84
2022/06/13 09:52:21;;;;;;;2.60;1.73;;;24.60;23.30;;;;;;5046556;28;20468;-83
2022/06/13 09:54:57;;;;;;;5.70;2.17;;;24.30;22.70;;;;;;5044628;28;20457;-82
2022/06/13 09:57:36;;;;;;;6.20;2.30;;;24.10;23.60;;;;;;5053656;28;20525;-85
2022/06/13 10:00:18;;;;;;;6.50;2.57;;;23.70;23.40;;;;;;5063134;28;20503;-83
2022/06/13 10:02:54;;;;;;;5.23;2.20;;;23.80;23.40;;;;;;5069224;28;20478;-84
2022/06/13 10:05:35;;;;;;;2.63;1.60;;;23.70;23.30;;;;;;5061298;28;20442;-83
2022/06/13 10:08:13;;;;;;;3.77;1.63;;;23.70;22.70;;;;;;5045078;28;20541;-84
2022/06/13 10:10:47;;;;;;;2.90;1.77;;;23.80;19.40;;;;;;5056640;28;20859;-83
2022/06/13 10:13:23;;;;;;;3.00;1.50;;;24.10;19.40;;;;;;5068594;28;20540;-83
2022/06/13 10:15:59;;;;;;;2.33;1.80;;;24.20;19.40;;;;;;5069512;28;20470;-84
2022/06/13 10:18:43;;;;;;;3.63;1.83;;;24.10;18.70;;;;;;5070725;28;20499;-83
2022/06/13 10:21:20;;;;;;;2.00;1.37;;;24.00;18.60;;;;;;5073695;28;20504;-83
2022/06/13 10:23:59;;;;;;;4.00;1.90;;;24.20;18.10;;;;;;5066260;28;20468;-84
2022/06/13 10:26:36;;;;;;;2.67;1.80;;;24.30;18.30;;;;;;5064139;28;20551;-85
2022/06/13 10:29:27;;;;;;;3.30;2.10;;;24.30;17.40;;;;;;5071192;28;20488;-83
2022/06/13 10:32:07;;;;;;;4.80;2.20;;;23.90;20.80;;;;;;5050368;28;20428;-83
2022/06/13 10:34:49;;;;;;;2.50;1.87;;;23.80;21.40;;;;;;5068927;28;20464;-83
2022/06/13 10:37:22;;;;;;;4.90;1.97;;;23.80;20.70;;;;;;5055351;28;20553;-86
2022/06/13 10:39:52;;;;;;;3.40;1.87;;;23.90;21.10;;;;;;5062684;28;20537;-84
2022/06/13 10:42:23;;;;;;;5.00;2.10;;;23.40;21.90;;;;;;5060479;28;20482;-83
2022/06/13 10:44:51;;;;;;;3.77;1.77;;;24.00;21.70;;;;;;5051117;28;20442;-83
2022/06/13 10:47:25;;;;;;;2.10;1.60;;;24.60;20.20;;;;;;5050876;28;20528;-83
2022/06/13 10:50:01;;;;;;;2.53;1.60;;;24.90;20.00;;;;;;5060159;28;20492;-85
2022/06/13 10:52:36;;;;;;;3.80;1.90;;;24.80;19.40;;;;;;5066553;28;20456;-81
2022/06/13 10:55:09;;;;;;;2.07;1.60;;;24.70;16.60;;;;;;5069335;28;20645;-85
2022/06/13 10:57:41;;;;;;;4.53;1.87;;;24.80;17.70;;;;;;5114949;22;20781;-83
2022/06/13 11:00:29;;;;;;;1.80;1.40;;;25.10;17.30;;;;;;5050658;28;20557;-84
2022/06/13 11:03:16;;;;;;;2.60;1.53;;;25.20;16.70;;;;;;5064527;28;20427;-84
2022/06/13 11:05:54;;;;;;;5.47;1.50;;;25.20;17.10;;;;;;5072107;28;20457;-83
2022/06/13 11:08:22;;;;;;;5.10;1.60;;;25.40;17.50;;;;;;5071776;28;20507;-83
2022/06/13 11:10:56;;;;;;;3.83;1.60;;;25.50;16.80;;;;;;5074945;28;20419;-85
2022/06/13 11:13:29;;;;;;;2.10;1.40;;;24.90;17.00;;;;;;5057896;28;20510;-84
2022/06/13 11:24:29;;;;;;;2.50;1.70;;;25.40;16.00;;;;;;5078278;28;20497;-86
2022/06/13 11:29:42;;;;;;;1.77;1.30;;;25.00;15.80;;;;;;5066956;28;20484;-87
2022/06/13 11:32:21;;;;;;;2.47;1.30;;;24.60;16.30;;;;;;5081937;28;20479;-83
2022/06/13 11:34:49;;;;;;;3.77;1.53;;;24.60;15.60;;;;;;5073702;28;20460;-81
2022/06/13 11:37:22;;;;;;;1.97;1.33;;;24.60;16.10;;;;;;5072947;28;20435;-83
2022/06/13 11:39:51;;;;;;;2.47;1.60;;;24.90;16.50;;;;;;5071556;28;20485;-86
2022/06/13 11:42:28;;;;;;;3.37;1.80;;;25.30;16.50;;;;;;5072218;28;20456;-81
2022/06/13 11:44:58;;;;;;;3.40;1.43;;;25.20;15.90;;;;;;5055144;28;20798;-83
2022/06/13 11:47:27;;;;;;;1.90;1.23;;;25.40;16.00;;;;;;5064039;28;20924;-82
2022/06/13 11:49:57;;;;;;;3.07;1.27;;;25.20;15.90;;;;;;5062487;28;20845;-85
2022/06/13 11:55:28;;;;;;;2.37;1.30;;;25.20;15.90;;;;;;5052510;28;20507;-83
2022/06/13 11:57:57;;;;;;;2.27;1.30;;;25.50;15.60;;;;;;5044325;28;20484;-83
2022/06/13 12:00:30;;;;;;;3.40;1.70;;;25.30;15.90;;;;;;5044275;28;20487;-81
2022/06/13 12:03:07;;;;;;;2.50;1.30;;;25.40;16.00;;;;;;5041249;28;20440;-82
2022/06/13 12:05:38;;;;;;;1.63;1.40;;;25.60;14.90;;;;;;5054233;28;20440;-83
2022/06/13 12:08:19;;;;;;;3.80;1.33;;;25.80;15.30;;;;;;5042969;28;20492;-84
2022/06/13 12:10:57;;;;;;;2.37;1.87;;;26.30;15.80;;;;;;5047440;28;20463;-81
2022/06/13 12:13:24;;;;;;;4.63;1.93;;;26.60;14.20;;;;;;5044457;28;20455;-82
2022/06/13 12:15:56;;;;;;;5.17;2.30;;;26.60;15.20;;;;;;5057260;28;20487;-83
2022/06/13 12:18:30;;;;;;;1.87;1.73;;;26.10;16.40;;;;;;5063747;28;20563;-84
2022/06/13 12:21:04;;;;;;;1.70;1.33;;;25.90;16.30;;;;;;5066014;28;20656;-84
2022/06/13 12:23:38;;;;;;;3.27;2.13;;;26.10;16.40;;;;;;5057713;28;20821;-82
2022/06/13 12:26:14;;;;;;;1.60;1.50;;;26.20;16.40;;;;;;5057957;28;20444;-85
2022/06/13 12:28:51;;;;;;;2.10;1.80;;;26.20;16.40;;;;;;5053739;28;20784;-85
2022/06/13 12:31:24;;;;;;;4.40;1.53;;;25.90;16.30;;;;;;5051333;28;20458;-81
2022/06/13 12:34:00;;;;;;;4.80;2.00;;;25.50;16.00;;;;;;5050910;28;20461;-84
2022/06/13 12:36:46;;;;;;;2.10;1.60;;;25.10;17.20;;;;;;5064975;28;20510;-85
2022/06/13 12:39:48;;;;;;;3.37;1.73;;;24.90;17.60;;;;;;5064915;28;20492;-83
2022/06/13 12:42:40;;;;;;;2.60;1.73;;;24.40;17.80;;;;;;5057831;28;20461;-83
2022/06/13 12:45:33;;;;;;;4.77;1.90;;;24.30;17.90;;;;;;5062470;28;20448;-83
2022/06/13 12:48:16;;;;;;;2.57;1.47;;;24.30;18.30;;;;;;5066191;28;20458;-81
2022/06/13 12:51:07;;;;;;;5.63;1.50;;;24.70;17.00;;;;;;5061857;28;20461;-83
2022/06/13 12:53:59;;;;;;;2.77;1.40;;;25.00;17.50;;;;;;5057029;28;20439;-83
2022/06/13 12:56:30;;;;;;;2.83;1.80;;;24.90;16.50;;;;;;5055106;28;20498;-85
2022/06/13 12:59:15;;;;;;;8.40;1.80;;;24.50;17.10;;;;;;5076519;28;20503;-84
2022/06/13 13:02:00;;;;;;;1.60;1.50;;;24.30;16.70;;;;;;5075957;28;20432;-87
2022/06/13 13:04:57;;;;;;;2.33;1.53;;;24.30;16.70;;;;;;5076828;28;20459;-84
2022/06/13 13:07:30;;;;;;;4.60;1.73;;;24.30;16.70;;;;;;5065199;28;20452;-86
2022/06/13 13:10:26;;;;;;;5.43;1.63;;;24.30;17.20;;;;;;5077405;28;20449;-84
2022/06/13 13:15:33;;;;;;;2.60;1.60;;;24.60;16.50;;;;;;5107648;28;20459;-85
2022/06/13 13:18:11;;;;;;;2.90;1.80;;;24.70;15.90;;;;;;5112428;28;20474;-83
2022/06/13 13:20:45;;;;;;;3.13;1.70;;;25.10;15.80;;;;;;5098240;28;20483;-83
2022/06/13 13:23:21;;;;;;;3.40;1.37;;;24.70;15.50;;;;;;5083740;28;20427;-85
2022/06/13 13:25:57;;;;;;;3.90;1.60;;;24.50;15.80;;;;;;5074301;28;20428;-83
2022/06/13 13:28:35;;;;;;;4.30;1.73;;;24.80;16.00;;;;;;5105572;28;20479;-83
2022/06/13 13:31:08;;;;;;;2.17;1.90;;;25.00;16.70;;;;;;5093651;28;20448;-84
2022/06/13 13:33:49;;;;;;;2.80;1.43;;;25.30;15.90;;;;;;5113604;28;20437;-84
2022/06/13 13:36:24;;;;;;;3.23;1.60;;;25.50;16.00;;;;;;5116130;28;20451;-85
2022/06/13 13:39:10;;;;;;;1.77;1.40;;;25.60;16.10;;;;;;5116156;28;20434;-87
2022/06/13 13:41:49;;;;;;;2.37;1.60;;;25.30;15.90;;;;;;5116955;28;20445;-86
2022/06/13 13:44:22;;;;;;;2.30;1.83;;;25.00;15.80;;;;;;5104659;28;20446;-87
2022/06/13 13:46:56;;;;;;;3.00;1.50;;;24.90;15.70;;;;;;5076845;28;20437;-87
2022/06/13 13:49:29;;;;;;;3.23;1.63;;;25.20;15.90;;;;;;5075853;28;20531;-84